Emslake — V2FL4 — position and weather

sailwx.info

Track history (hours):
 
Tides and Currents Weather Stations Pressure Air Temp Water Temp Dewpoint Dewpoint Depression Visibility Wind Speed Wind Dir Waves Ship Positions

Emslake

Last reported at 2015-Sep-03 22:33 UTC. Time now 2015-Sep-03 23:27 UTC.
Position N 55°07' E 014°18'.

Length 100 m; draft 5.6 m.

Type: Cargo ship. MMSI: 305712000.

Date/timePositionNaut miles runAvg speedWind from/ knotsBaromVisibWave heightAir tempDewpointWater temp
2015-Sep-03 22:33N 55°07' E 014°18'1010.3
2015-Sep-03 21:33N 55°00' E 014°05'1110.6
2015-Sep-03 20:33N 54°56' E 013°48'1010.4
2015-Sep-03 19:33N 54°52' E 013°31'1110.3
2015-Sep-03 18:29N 54°48' E 013°13'2410.4
2015-Sep-03 16:11N 54°38' E 012°36'610.3
2015-Sep-03 15:33N 54°34' E 012°26'1010.2
2015-Sep-03 14:34N 54°27' E 012°13'10 9.9
2015-Sep-03 13:34N 54°25' E 011°57'1110.8
2015-Sep-03 12:33N 54°27' E 011°39'1010.1
2015-Sep-03 11:34N 54°31' E 011°23'10 9.8
2015-Sep-03 10:34N 54°35' E 011°07'10 9.8
2015-Sep-03 09:34N 54°34' E 010°50'1110.6
2015-Sep-03 08:34N 54°32' E 010°32'1010.2
2015-Sep-03 07:33N 54°28' E 010°16'8 7.7
2015-Sep-03 06:34N 54°22' E 010°08'5 5.1
2015-Sep-03 05:33N 54°21' E 009°60'8 8.3
2015-Sep-03 04:34N 54°21' E 009°46'8 7.6
2015-Sep-03 03:33N 54°15' E 009°37'7 6.6
2015-Sep-03 02:34N 54°11' E 009°28'7 7.5
2015-Sep-03 01:34N 54°05' E 009°19'9 8.5
2015-Sep-03 00:33N 53°57' E 009°15'5 4.6
2015-Sep-02 23:34N 53°54' E 009°09'2 1.8
2015-Sep-02 22:34N 53°53' E 009°07'5 5.3
2015-Sep-02 21:34N 53°51' E 008°59'7 7.0
2015-Sep-02 20:33N 53°51' E 008°47'6 6.5
2015-Sep-02 19:33N 53°56' E 008°40'7 7.0
2015-Sep-02 18:33N 53°58' E 008°29'9 8.8
2015-Sep-02 17:33N 53°59' E 008°14'9 8.9
2015-Sep-02 16:34N 53°58' E 007°59'10 9.5
2015-Sep-02 15:33N 53°56' E 007°43'10 9.9
2015-Sep-02 14:33N 53°53' E 007°27'1010.3
2015-Sep-02 13:33N 53°51' E 007°10'1110.8
2015-Sep-02 12:32N 53°48' E 006°52'1111.1
2015-Sep-02 11:33N 53°46' E 006°34'1211.4
2015-Sep-02 10:32N 53°43' E 006°15'1111.4
2015-Sep-02 09:34N 53°39' E 005°57'1111.3
2015-Sep-02 08:34N 53°35' E 005°39'1111.5
2015-Sep-02 07:34N 53°32' E 005°21'1211.5
2015-Sep-02 06:34N 53°28' E 005°03'1111.2
2015-Sep-02 05:33N 53°24' E 004°45'11 9.7
2015-Sep-02 04:26N 53°15' E 004°35'9 9.2
2015-Sep-02 03:30N 53°07' E 004°28'8 9.0
2015-Sep-02 02:33N 52°60' E 004°21'9 8.7
2015-Sep-02 01:33N 52°52' E 004°15'9 8.6
2015-Sep-02 00:33N 52°44' E 004°08'8 8.4
2015-Sep-01 23:33N 52°37' E 004°00'8 8.0
2015-Sep-01 22:34N 52°30' E 003°55'8 8.3
2015-Sep-01 21:33N 52°22' E 003°53'9 8.7
2015-Sep-01 20:34N 52°13' E 003°53'10 9.6
2015-Sep-01 19:34N 52°04' E 003°55'9 8.8
2015-Sep-01 18:33N 51°59' E 004°07'9 9.5
2015-Sep-01 17:33N 51°53' E 004°20'7 6.6
2015-Sep-01 16:34N 51°50' E 004°29'6 6.2
2015-Sep-01 15:33N 51°48' E 004°38'0 0.2
2015-Sep-01 14:33N 51°48' E 004°38'0 0.0
2015-Sep-01 13:34N 51°48' E 004°38'0 0.0
2015-Sep-01 12:33N 51°48' E 004°38'0 0.0
2015-Sep-01 11:33N 51°48' E 004°38'0 0.0
2015-Sep-01 10:33N 51°48' E 004°38'0 0.0
2015-Sep-01 09:33N 51°48' E 004°38'0 0.0
2015-Sep-01 08:33N 51°48' E 004°38'0 0.0
2015-Sep-01 07:33N 51°48' E 004°38'0 0.0
2015-Sep-01 06:33N 51°48' E 004°38'0 0.0
2015-Sep-01 05:33N 51°48' E 004°38'0 0.0
2015-Sep-01 04:34N 51°48' E 004°38'0 0.0
2015-Sep-01 03:34N 51°48' E 004°38'0 0.0
2015-Sep-01 02:34N 51°48' E 004°38'0 0.0
2015-Sep-01 01:34N 51°48' E 004°38'0 0.0
2015-Sep-01 00:33N 51°48' E 004°38'0 0.0
2015-Aug-31 23:33N 51°48' E 004°38'0 0.0
2015-Aug-31 22:33N 51°48' E 004°38'0 0.0
2015-Aug-31 21:33N 51°48' E 004°38'0 0.0
2015-Aug-31 20:33N 51°48' E 004°38'0 0.0
2015-Aug-31 19:33N 51°48' E 004°38'0 0.0
2015-Aug-31 18:33N 51°48' E 004°38'0 0.0
2015-Aug-31 17:33N 51°48' E 004°38'0 0.0
2015-Aug-31 16:33N 51°48' E 004°38'0 0.0
2015-Aug-31 15:33N 51°48' E 004°38'0 0.0
2015-Aug-31 14:33N 51°48' E 004°38'0 0.0
2015-Aug-31 13:34N 51°48' E 004°38'0 0.0
2015-Aug-31 12:34N 51°48' E 004°38'0 0.0
2015-Aug-31 11:33N 51°48' E 004°38'0 0.0
2015-Aug-31 10:33N 51°48' E 004°38'0 0.0
2015-Aug-31 09:33N 51°48' E 004°38'0 0.0
2015-Aug-31 08:33N 51°48' E 004°38'0 0.0
2015-Aug-31 07:34N 51°48' E 004°38'0 0.0
2015-Aug-31 06:33N 51°48' E 004°38'0 0.0
2015-Aug-31 05:33N 51°48' E 004°38'0 0.0
2015-Aug-31 04:33N 51°48' E 004°38'0 0.0
2015-Aug-31 03:34N 51°48' E 004°38'0 0.0
2015-Aug-31 02:33N 51°48' E 004°38'0 0.0
2015-Aug-31 01:34N 51°48' E 004°38'0 0.0
2015-Aug-31 00:34N 51°48' E 004°38'0 0.0
2015-Aug-30 23:33N 51°48' E 004°38'0 0.0
2015-Aug-30 22:33N 51°48' E 004°38'0 0.0
2015-Aug-30 21:33N 51°48' E 004°38'0 0.0
2015-Aug-30 20:34N 51°48' E 004°38'0 0.0
2015-Aug-30 19:34N 51°48' E 004°38'0 0.0
2015-Aug-30 18:34N 51°48' E 004°38'0 0.0
2015-Aug-30 17:34N 51°48' E 004°38'0 0.0
2015-Aug-30 16:33N 51°48' E 004°38'0 0.0
2015-Aug-30 15:33N 51°48' E 004°38'0 0.0
2015-Aug-30 14:34N 51°48' E 004°38'0 0.0
2015-Aug-30 13:33N 51°48' E 004°38'0 0.0
2015-Aug-30 12:34N 51°48' E 004°38'0 0.0
2015-Aug-30 11:34N 51°48' E 004°38'0 0.0
2015-Aug-30 10:34N 51°48' E 004°38'0 0.0
2015-Aug-30 09:34N 51°48' E 004°38'0 0.0
2015-Aug-30 08:33N 51°48' E 004°38'0 0.0
2015-Aug-30 07:33N 51°48' E 004°38'0 0.0
2015-Aug-30 06:34N 51°48' E 004°38'0 0.0
2015-Aug-30 05:33N 51°48' E 004°38'0 0.0
2015-Aug-30 04:33N 51°48' E 004°38'0 0.0
2015-Aug-30 03:33N 51°48' E 004°38'0 0.0
2015-Aug-30 02:33N 51°48' E 004°38'0 0.0
2015-Aug-30 01:33N 51°48' E 004°38'0 0.0
2015-Aug-30 00:33N 51°48' E 004°38'0 0.0
2015-Aug-29 23:34N 51°48' E 004°38'0 0.0
2015-Aug-29 22:33N 51°48' E 004°38'0 0.0
2015-Aug-29 21:33N 51°48' E 004°38'0 0.0
2015-Aug-29 20:33N 51°48' E 004°38'0 0.0
2015-Aug-29 19:33N 51°48' E 004°38'0 0.0
2015-Aug-29 18:34N 51°48' E 004°38'0 0.0
2015-Aug-29 17:34N 51°48' E 004°38'0 0.0
2015-Aug-29 16:34N 51°48' E 004°38'0 0.0
2015-Aug-29 15:34N 51°48' E 004°38'0 0.0
2015-Aug-29 14:34N 51°48' E 004°38'0 0.0
2015-Aug-29 13:34N 51°48' E 004°38'0 0.0
2015-Aug-29 12:34N 51°48' E 004°38'0 0.0
2015-Aug-29 11:33N 51°48' E 004°38'0 0.0
2015-Aug-29 10:33N 51°48' E 004°38'0 0.0
2015-Aug-29 09:33N 51°48' E 004°38'0 0.0
2015-Aug-29 08:33N 51°48' E 004°38'0 0.0
2015-Aug-29 07:34N 51°48' E 004°38'0 0.0
2015-Aug-29 06:34N 51°48' E 004°38'0 0.0
2015-Aug-29 05:34N 51°48' E 004°38'0 0.0
2015-Aug-29 04:34N 51°48' E 004°38'0 0.0
2015-Aug-29 03:34N 51°48' E 004°38'0 0.0
2015-Aug-29 02:33N 51°48' E 004°38'5 5.5
2015-Aug-29 01:34N 51°50' E 004°30'9 9.3
2015-Aug-29 00:34N 51°54' E 004°17'1111.4
2015-Aug-28 23:34N 51°60' E 004°01'1110.5
2015-Aug-28 22:33N 51°58' E 003°44'30 9.2
2015-Aug-28 19:22N 51°49' E 002°58'7 8.9
2015-Aug-28 18:32N 51°47' E 002°47'8 8.2
2015-Aug-28 17:32N 51°44' E 002°35'8 8.5
2015-Aug-28 16:33N 51°38' E 002°26'9 9.1
2015-Aug-28 15:34N 51°31' E 002°17'1010.3
2015-Aug-28 14:33N 51°21' E 002°09'1110.6
2015-Aug-28 13:34N 51°13' E 001°59'1211.8
2015-Aug-28 12:34N 51°07' E 001°43'1313.3
2015-Aug-28 11:34N 50°58' E 001°28'16410.0
2015-Aug-27 19:11N 50°12' W 002°40'712.0
2015-Aug-27 18:33N 50°12' W 002°52'1212.2
2015-Aug-27 17:33N 50°09' W 003°11'1212.5
2015-Aug-27 16:34N 50°07' W 003°30'90 7.5
2015-Aug-27 04:29N 50°28' W 005°47'8 8.8
2015-Aug-27 03:32N 50°33' W 005°37'9 8.7
2015-Aug-27 02:33N 50°39' W 005°27'8 8.3
2015-Aug-27 01:33N 50°45' W 005°17'2 0.0
2015-Aug-25 13:33N 50°45' W 005°15'9 8.6
2015-Aug-25 12:33N 50°38' W 005°24'11 9.0
2015-Aug-25 11:19N 50°31' W 005°37'  
Track history (hours):
 
Tides and Currents Weather Stations Pressure Air Temp Water Temp Dewpoint Dewpoint Depression Visibility Wind Speed Wind Dir Waves Ship Positions

Emslake

Last reported at 2015-Sep-03 22:33 UTC. Time now 2015-Sep-03 23:27 UTC.
Position N 55°07' E 014°18'.

Length 100 m; draft 5.6 m.

Type: Cargo ship. MMSI: 305712000.

Date/timePositionNaut miles runAvg speedWind from/ knotsBaromVisibWave heightAir tempDewpointWater temp
2015-Sep-03 22:33N 55°07' E 014°18'1010.3
2015-Sep-03 21:33N 55°00' E 014°05'1110.6
2015-Sep-03 20:33N 54°56' E 013°48'1010.4
2015-Sep-03 19:33N 54°52' E 013°31'1110.3
2015-Sep-03 18:29N 54°48' E 013°13'2410.4
2015-Sep-03 16:11N 54°38' E 012°36'610.3
2015-Sep-03 15:33N 54°34' E 012°26'1010.2
2015-Sep-03 14:34N 54°27' E 012°13'10 9.9
2015-Sep-03 13:34N 54°25' E 011°57'1110.8
2015-Sep-03 12:33N 54°27' E 011°39'1010.1
2015-Sep-03 11:34N 54°31' E 011°23'10 9.8
2015-Sep-03 10:34N 54°35' E 011°07'10 9.8
2015-Sep-03 09:34N 54°34' E 010°50'1110.6
2015-Sep-03 08:34N 54°32' E 010°32'1010.2
2015-Sep-03 07:33N 54°28' E 010°16'8 7.7
2015-Sep-03 06:34N 54°22' E 010°08'5 5.1
2015-Sep-03 05:33N 54°21' E 009°60'8 8.3
2015-Sep-03 04:34N 54°21' E 009°46'8 7.6
2015-Sep-03 03:33N 54°15' E 009°37'7 6.6
2015-Sep-03 02:34N 54°11' E 009°28'7 7.5
2015-Sep-03 01:34N 54°05' E 009°19'9 8.5
2015-Sep-03 00:33N 53°57' E 009°15'5 4.6
2015-Sep-02 23:34N 53°54' E 009°09'2 1.8
2015-Sep-02 22:34N 53°53' E 009°07'5 5.3
2015-Sep-02 21:34N 53°51' E 008°59'7 7.0
2015-Sep-02 20:33N 53°51' E 008°47'6 6.5
2015-Sep-02 19:33N 53°56' E 008°40'7 7.0
2015-Sep-02 18:33N 53°58' E 008°29'9 8.8
2015-Sep-02 17:33N 53°59' E 008°14'9 8.9
2015-Sep-02 16:34N 53°58' E 007°59'10 9.5
2015-Sep-02 15:33N 53°56' E 007°43'10 9.9
2015-Sep-02 14:33N 53°53' E 007°27'1010.3
2015-Sep-02 13:33N 53°51' E 007°10'1110.8
2015-Sep-02 12:32N 53°48' E 006°52'1111.1
2015-Sep-02 11:33N 53°46' E 006°34'1211.4
2015-Sep-02 10:32N 53°43' E 006°15'1111.4
2015-Sep-02 09:34N 53°39' E 005°57'1111.3
2015-Sep-02 08:34N 53°35' E 005°39'1111.5
2015-Sep-02 07:34N 53°32' E 005°21'1211.5
2015-Sep-02 06:34N 53°28' E 005°03'1111.2
2015-Sep-02 05:33N 53°24' E 004°45'11 9.7
2015-Sep-02 04:26N 53°15' E 004°35'9 9.2
2015-Sep-02 03:30N 53°07' E 004°28'8 9.0
2015-Sep-02 02:33N 52°60' E 004°21'9 8.7
2015-Sep-02 01:33N 52°52' E 004°15'9 8.6
2015-Sep-02 00:33N 52°44' E 004°08'8 8.4
2015-Sep-01 23:33N 52°37' E 004°00'8 8.0
2015-Sep-01 22:34N 52°30' E 003°55'8 8.3
2015-Sep-01 21:33N 52°22' E 003°53'9 8.7
2015-Sep-01 20:34N 52°13' E 003°53'10 9.6
2015-Sep-01 19:34N 52°04' E 003°55'9 8.8
2015-Sep-01 18:33N 51°59' E 004°07'9 9.5
2015-Sep-01 17:33N 51°53' E 004°20'7 6.6
2015-Sep-01 16:34N 51°50' E 004°29'6 6.2
2015-Sep-01 15:33N 51°48' E 004°38'0 0.2
2015-Sep-01 14:33N 51°48' E 004°38'0 0.0
2015-Sep-01 13:34N 51°48' E 004°38'0 0.0
2015-Sep-01 12:33N 51°48' E 004°38'0 0.0
2015-Sep-01 11:33N 51°48' E 004°38'0 0.0
2015-Sep-01 10:33N 51°48' E 004°38'0 0.0
2015-Sep-01 09:33N 51°48' E 004°38'0 0.0
2015-Sep-01 08:33N 51°48' E 004°38'0 0.0
2015-Sep-01 07:33N 51°48' E 004°38'0 0.0
2015-Sep-01 06:33N 51°48' E 004°38'0 0.0
2015-Sep-01 05:33N 51°48' E 004°38'0 0.0
2015-Sep-01 04:34N 51°48' E 004°38'0 0.0
2015-Sep-01 03:34N 51°48' E 004°38'0 0.0
2015-Sep-01 02:34N 51°48' E 004°38'0 0.0
2015-Sep-01 01:34N 51°48' E 004°38'0 0.0
2015-Sep-01 00:33N 51°48' E 004°38'0 0.0
2015-Aug-31 23:33N 51°48' E 004°38'0 0.0
2015-Aug-31 22:33N 51°48' E 004°38'0 0.0
2015-Aug-31 21:33N 51°48' E 004°38'0 0.0
2015-Aug-31 20:33N 51°48' E 004°38'0 0.0
2015-Aug-31 19:33N 51°48' E 004°38'0 0.0
2015-Aug-31 18:33N 51°48' E 004°38'0 0.0
2015-Aug-31 17:33N 51°48' E 004°38'0 0.0
2015-Aug-31 16:33N 51°48' E 004°38'0 0.0
2015-Aug-31 15:33N 51°48' E 004°38'0 0.0
2015-Aug-31 14:33N 51°48' E 004°38'0 0.0
2015-Aug-31 13:34N 51°48' E 004°38'0 0.0
2015-Aug-31 12:34N 51°48' E 004°38'0 0.0
2015-Aug-31 11:33N 51°48' E 004°38'0 0.0
2015-Aug-31 10:33N 51°48' E 004°38'0 0.0
2015-Aug-31 09:33N 51°48' E 004°38'0 0.0
2015-Aug-31 08:33N 51°48' E 004°38'0 0.0
2015-Aug-31 07:34N 51°48' E 004°38'0 0.0
2015-Aug-31 06:33N 51°48' E 004°38'0 0.0
2015-Aug-31 05:33N 51°48' E 004°38'0 0.0
2015-Aug-31 04:33N 51°48' E 004°38'0 0.0
2015-Aug-31 03:34N 51°48' E 004°38'0 0.0
2015-Aug-31 02:33N 51°48' E 004°38'0 0.0
2015-Aug-31 01:34N 51°48' E 004°38'0 0.0
2015-Aug-31 00:34N 51°48' E 004°38'0 0.0
2015-Aug-30 23:33N 51°48' E 004°38'0 0.0
2015-Aug-30 22:33N 51°48' E 004°38'0 0.0
2015-Aug-30 21:33N 51°48' E 004°38'0 0.0
2015-Aug-30 20:34N 51°48' E 004°38'0 0.0
2015-Aug-30 19:34N 51°48' E 004°38'0 0.0
2015-Aug-30 18:34N 51°48' E 004°38'0 0.0
2015-Aug-30 17:34N 51°48' E 004°38'0 0.0
2015-Aug-30 16:33N 51°48' E 004°38'0 0.0
2015-Aug-30 15:33N 51°48' E 004°38'0 0.0
2015-Aug-30 14:34N 51°48' E 004°38'0 0.0
2015-Aug-30 13:33N 51°48' E 004°38'0 0.0
2015-Aug-30 12:34N 51°48' E 004°38'0 0.0
2015-Aug-30 11:34N 51°48' E 004°38'0 0.0
2015-Aug-30 10:34N 51°48' E 004°38'0 0.0
2015-Aug-30 09:34N 51°48' E 004°38'0 0.0
2015-Aug-30 08:33N 51°48' E 004°38'0 0.0
2015-Aug-30 07:33N 51°48' E 004°38'0 0.0
2015-Aug-30 06:34N 51°48' E 004°38'0 0.0
2015-Aug-30 05:33N 51°48' E 004°38'0 0.0
2015-Aug-30 04:33N 51°48' E 004°38'0 0.0
2015-Aug-30 03:33N 51°48' E 004°38'0 0.0
2015-Aug-30 02:33N 51°48' E 004°38'0 0.0
2015-Aug-30 01:33N 51°48' E 004°38'0 0.0
2015-Aug-30 00:33N 51°48' E 004°38'0 0.0
2015-Aug-29 23:34N 51°48' E 004°38'0 0.0
2015-Aug-29 22:33N 51°48' E 004°38'0 0.0
2015-Aug-29 21:33N 51°48' E 004°38'0 0.0
2015-Aug-29 20:33N 51°48' E 004°38'0 0.0
2015-Aug-29 19:33N 51°48' E 004°38'0 0.0
2015-Aug-29 18:34N 51°48' E 004°38'0 0.0
2015-Aug-29 17:34N 51°48' E 004°38'0 0.0
2015-Aug-29 16:34N 51°48' E 004°38'0 0.0
2015-Aug-29 15:34N 51°48' E 004°38'0 0.0
2015-Aug-29 14:34N 51°48' E 004°38'0 0.0
2015-Aug-29 13:34N 51°48' E 004°38'0 0.0
2015-Aug-29 12:34N 51°48' E 004°38'0 0.0
2015-Aug-29 11:33N 51°48' E 004°38'0 0.0
2015-Aug-29 10:33N 51°48' E 004°38'0 0.0
2015-Aug-29 09:33N 51°48' E 004°38'0 0.0
2015-Aug-29 08:33N 51°48' E 004°38'0 0.0
2015-Aug-29 07:34N 51°48' E 004°38'0 0.0
2015-Aug-29 06:34N 51°48' E 004°38'0 0.0
2015-Aug-29 05:34N 51°48' E 004°38'0 0.0
2015-Aug-29 04:34N 51°48' E 004°38'0 0.0
2015-Aug-29 03:34N 51°48' E 004°38'0 0.0
2015-Aug-29 02:33N 51°48' E 004°38'5 5.5
2015-Aug-29 01:34N 51°50' E 004°30'9 9.3
2015-Aug-29 00:34N 51°54' E 004°17'1111.4
2015-Aug-28 23:34N 51°60' E 004°01'1110.5
2015-Aug-28 22:33N 51°58' E 003°44'30 9.2
2015-Aug-28 19:22N 51°49' E 002°58'7 8.9
2015-Aug-28 18:32N 51°47' E 002°47'8 8.2
2015-Aug-28 17:32N 51°44' E 002°35'8 8.5
2015-Aug-28 16:33N 51°38' E 002°26'9 9.1
2015-Aug-28 15:34N 51°31' E 002°17'1010.3
2015-Aug-28 14:33N 51°21' E 002°09'1110.6
2015-Aug-28 13:34N 51°13' E 001°59'1211.8
2015-Aug-28 12:34N 51°07' E 001°43'1313.3
2015-Aug-28 11:34N 50°58' E 001°28'16410.0
2015-Aug-27 19:11N 50°12' W 002°40'712.0
2015-Aug-27 18:33N 50°12' W 002°52'1212.2
2015-Aug-27 17:33N 50°09' W 003°11'1212.5
2015-Aug-27 16:34N 50°07' W 003°30'90 7.5
2015-Aug-27 04:29N 50°28' W 005°47'8 8.8
2015-Aug-27 03:32N 50°33' W 005°37'9 8.7
2015-Aug-27 02:33N 50°39' W 005°27'8 8.3
2015-Aug-27 01:33N 50°45' W 005°17'2 0.0
2015-Aug-25 13:33N 50°45' W 005°15'9 8.6
2015-Aug-25 12:33N 50°38' W 005°24'11 9.0
2015-Aug-25 11:19N 50°31' W 005°37'  

Dump ship's entire track history